sensor_id;sensor_type;location;lat;lon;timestamp;temperature;humidity
72320;SHT30;60269;52.502;16.732;2023-07-31T00:00:13;15.96;90.44
72320;SHT30;60269;52.502;16.732;2023-07-31T00:04:05;15.96;90.48
72320;SHT30;60269;52.502;16.732;2023-07-31T00:07:37;15.78;91.21
72320;SHT30;60269;52.502;16.732;2023-07-31T00:11:10;15.67;91.62
72320;SHT30;60269;52.502;16.732;2023-07-31T00:14:42;15.58;91.87
72320;SHT30;60269;52.502;16.732;2023-07-31T00:18:14;15.46;92.41
72320;SHT30;60269;52.502;16.732;2023-07-31T00:21:47;15.53;92.28
72320;SHT30;60269;52.502;16.732;2023-07-31T00:25:19;15.40;92.75
72320;SHT30;60269;52.502;16.732;2023-07-31T00:28:51;15.27;93.03
72320;SHT30;60269;52.502;16.732;2023-07-31T00:32:23;15.23;93.24
72320;SHT30;60269;52.502;16.732;2023-07-31T00:35:55;15.26;93.10
72320;SHT30;60269;52.502;16.732;2023-07-31T00:39:30;15.13;93.56
72320;SHT30;60269;52.502;16.732;2023-07-31T00:43:03;15.13;93.57
72320;SHT30;60269;52.502;16.732;2023-07-31T00:46:35;15.00;94.00
72320;SHT30;60269;52.502;16.732;2023-07-31T00:50:08;14.99;93.90
72320;SHT30;60269;52.502;16.732;2023-07-31T00:53:41;14.90;94.14
72320;SHT30;60269;52.502;16.732;2023-07-31T00:57:15;14.85;94.29
72320;SHT30;60269;52.502;16.732;2023-07-31T01:00:47;14.79;94.49
72320;SHT30;60269;52.502;16.732;2023-07-31T01:04:20;14.83;94.25
72320;SHT30;60269;52.502;16.732;2023-07-31T01:08:22;14.80;94.07
72320;SHT30;60269;52.502;16.732;2023-07-31T01:11:57;14.65;94.59
72320;SHT30;60269;52.502;16.732;2023-07-31T01:15:29;14.67;94.82
72320;SHT30;60269;52.502;16.732;2023-07-31T01:19:01;14.68;94.60
72320;SHT30;60269;52.502;16.732;2023-07-31T01:26:19;14.51;94.99
72320;SHT30;60269;52.502;16.732;2023-07-31T01:33:42;14.37;95.60
72320;SHT30;60269;52.502;16.732;2023-07-31T01:37:14;14.22;95.93
72320;SHT30;60269;52.502;16.732;2023-07-31T01:40:51;14.20;96.12
72320;SHT30;60269;52.502;16.732;2023-07-31T01:44:24;14.17;96.13
72320;SHT30;60269;52.502;16.732;2023-07-31T01:47:55;14.07;96.45
72320;SHT30;60269;52.502;16.732;2023-07-31T01:51:28;14.06;96.54
72320;SHT30;60269;52.502;16.732;2023-07-31T01:55:00;14.04;96.68
72320;SHT30;60269;52.502;16.732;2023-07-31T01:58:32;14.07;96.60
72320;SHT30;60269;52.502;16.732;2023-07-31T02:02:04;14.04;96.59
72320;SHT30;60269;52.502;16.732;2023-07-31T02:05:44;13.91;96.81
72320;SHT30;60269;52.502;16.732;2023-07-31T02:09:16;13.84;96.92
72320;SHT30;60269;52.502;16.732;2023-07-31T02:12:48;13.80;96.99
72320;SHT30;60269;52.502;16.732;2023-07-31T02:16:20;13.80;97.16
72320;SHT30;60269;52.502;16.732;2023-07-31T02:19:53;13.83;97.12
72320;SHT30;60269;52.502;16.732;2023-07-31T02:23:25;13.73;97.05
72320;SHT30;60269;52.502;16.732;2023-07-31T02:26:57;13.65;97.50
72320;SHT30;60269;52.502;16.732;2023-07-31T02:30:29;13.63;97.75
72320;SHT30;60269;52.502;16.732;2023-07-31T02:34:03;13.67;97.80
72320;SHT30;60269;52.502;16.732;2023-07-31T02:37:34;13.70;97.84
72320;SHT30;60269;52.502;16.732;2023-07-31T02:41:06;13.77;97.50
72320;SHT30;60269;52.502;16.732;2023-07-31T02:44:38;13.77;97.39
72320;SHT30;60269;52.502;16.732;2023-07-31T02:48:11;13.69;97.34
72320;SHT30;60269;52.502;16.732;2023-07-31T02:51:42;13.62;97.41
72320;SHT30;60269;52.502;16.732;2023-07-31T02:55:15;13.53;97.45
72320;SHT30;60269;52.502;16.732;2023-07-31T02:58:49;13.48;97.78
72320;SHT30;60269;52.502;16.732;2023-07-31T03:02:21;13.38;97.94
72320;SHT30;60269;52.502;16.732;2023-07-31T03:05:53;13.36;98.03
72320;SHT30;60269;52.502;16.732;2023-07-31T03:09:25;13.39;98.19
72320;SHT30;60269;52.502;16.732;2023-07-31T03:12:57;13.46;97.97
72320;SHT30;60269;52.502;16.732;2023-07-31T03:16:30;13.39;98.08
72320;SHT30;60269;52.502;16.732;2023-07-31T03:20:03;13.46;98.15
72320;SHT30;60269;52.502;16.732;2023-07-31T03:23:35;13.44;98.26
72320;SHT30;60269;52.502;16.732;2023-07-31T03:27:07;13.45;98.29
72320;SHT30;60269;52.502;16.732;2023-07-31T03:30:40;13.49;98.46
72320;SHT30;60269;52.502;16.732;2023-07-31T03:34:13;13.65;98.41
72320;SHT30;60269;52.502;16.732;2023-07-31T03:37:46;13.61;98.37
72320;SHT30;60269;52.502;16.732;2023-07-31T03:41:19;13.66;98.40
72320;SHT30;60269;52.502;16.732;2023-07-31T03:44:52;13.74;98.40
72320;SHT30;60269;52.502;16.732;2023-07-31T03:48:23;13.80;98.17
72320;SHT30;60269;52.502;16.732;2023-07-31T03:51:57;13.86;98.07
72320;SHT30;60269;52.502;16.732;2023-07-31T03:55:29;13.96;97.93
72320;SHT30;60269;52.502;16.732;2023-07-31T03:59:04;14.01;97.88
72320;SHT30;60269;52.502;16.732;2023-07-31T04:02:36;14.04;97.85
72320;SHT30;60269;52.502;16.732;2023-07-31T04:06:08;14.06;97.86
72320;SHT30;60269;52.502;16.732;2023-07-31T04:09:40;14.04;97.81
72320;SHT30;60269;52.502;16.732;2023-07-31T04:13:12;14.07;97.52
72320;SHT30;60269;52.502;16.732;2023-07-31T04:16:44;14.11;97.51
72320;SHT30;60269;52.502;16.732;2023-07-31T04:20:16;14.21;97.36
72320;SHT30;60269;52.502;16.732;2023-07-31T04:23:48;14.30;97.06
72320;SHT30;60269;52.502;16.732;2023-07-31T04:27:20;14.37;96.78
72320;SHT30;60269;52.502;16.732;2023-07-31T04:30:52;14.42;96.63
72320;SHT30;60269;52.502;16.732;2023-07-31T04:34:25;14.48;96.40
72320;SHT30;60269;52.502;16.732;2023-07-31T04:37:57;14.58;95.91
72320;SHT30;60269;52.502;16.732;2023-07-31T04:41:29;14.57;96.17
72320;SHT30;60269;52.502;16.732;2023-07-31T04:45:01;14.55;95.99
72320;SHT30;60269;52.502;16.732;2023-07-31T04:48:34;14.61;95.69
72320;SHT30;60269;52.502;16.732;2023-07-31T04:52:06;14.62;95.52
72320;SHT30;60269;52.502;16.732;2023-07-31T04:55:38;14.61;95.63
72320;SHT30;60269;52.502;16.732;2023-07-31T04:59:10;14.59;95.65
72320;SHT30;60269;52.502;16.732;2023-07-31T05:02:43;14.73;95.53
72320;SHT30;60269;52.502;16.732;2023-07-31T05:06:15;15.07;94.25
72320;SHT30;60269;52.502;16.732;2023-07-31T05:09:47;15.46;93.12
72320;SHT30;60269;52.502;16.732;2023-07-31T05:13:19;15.88;91.69
72320;SHT30;60269;52.502;16.732;2023-07-31T05:16:51;16.13;90.58
72320;SHT30;60269;52.502;16.732;2023-07-31T05:20:25;16.68;86.66
72320;SHT30;60269;52.502;16.732;2023-07-31T05:23:57;16.74;86.07
72320;SHT30;60269;52.502;16.732;2023-07-31T05:27:29;16.44;87.46
72320;SHT30;60269;52.502;16.732;2023-07-31T05:31:04;16.50;86.74
72320;SHT30;60269;52.502;16.732;2023-07-31T05:34:36;17.10;84.71
72320;SHT30;60269;52.502;16.732;2023-07-31T05:38:08;17.14;84.19
72320;SHT30;60269;52.502;16.732;2023-07-31T05:41:41;17.26;84.30
72320;SHT30;60269;52.502;16.732;2023-07-31T05:45:13;17.39;83.38
72320;SHT30;60269;52.502;16.732;2023-07-31T05:48:45;17.43;83.60
72320;SHT30;60269;52.502;16.732;2023-07-31T05:52:18;17.59;82.20
72320;SHT30;60269;52.502;16.732;2023-07-31T05:55:51;18.17;80.87
72320;SHT30;60269;52.502;16.732;2023-07-31T05:59:23;18.32;79.56
72320;SHT30;60269;52.502;16.732;2023-07-31T06:02:55;18.27;79.66
72320;SHT30;60269;52.502;16.732;2023-07-31T06:06:27;18.35;79.25
72320;SHT30;60269;52.502;16.732;2023-07-31T06:10:00;18.42;78.28
72320;SHT30;60269;52.502;16.732;2023-07-31T06:13:37;18.79;77.44
72320;SHT30;60269;52.502;16.732;2023-07-31T06:17:09;18.66;77.39
72320;SHT30;60269;52.502;16.732;2023-07-31T06:20:41;18.90;76.86
72320;SHT30;60269;52.502;16.732;2023-07-31T06:24:14;18.95;75.97
72320;SHT30;60269;52.502;16.732;2023-07-31T06:27:50;18.85;76.22
72320;SHT30;60269;52.502;16.732;2023-07-31T06:31:23;18.90;76.09
72320;SHT30;60269;52.502;16.732;2023-07-31T06:34:55;18.90;76.28
72320;SHT30;60269;52.502;16.732;2023-07-31T06:38:28;18.66;76.63
72320;SHT30;60269;52.502;16.732;2023-07-31T06:42:01;18.38;76.90
72320;SHT30;60269;52.502;16.732;2023-07-31T06:45:34;18.29;77.83
72320;SHT30;60269;52.502;16.732;2023-07-31T06:49:06;18.37;77.45
72320;SHT30;60269;52.502;16.732;2023-07-31T06:52:39;18.35;77.76
72320;SHT30;60269;52.502;16.732;2023-07-31T06:56:13;18.65;77.28
72320;SHT30;60269;52.502;16.732;2023-07-31T06:59:46;18.48;77.59
72320;SHT30;60269;52.502;16.732;2023-07-31T07:03:18;18.39;78.33
72320;SHT30;60269;52.502;16.732;2023-07-31T07:06:51;18.44;78.46
72320;SHT30;60269;52.502;16.732;2023-07-31T07:10:23;18.76;77.42
72320;SHT30;60269;52.502;16.732;2023-07-31T07:13:58;18.97;77.42
72320;SHT30;60269;52.502;16.732;2023-07-31T07:17:30;18.92;76.95
72320;SHT30;60269;52.502;16.732;2023-07-31T07:21:05;18.97;77.72
72320;SHT30;60269;52.502;16.732;2023-07-31T07:24:37;18.90;76.74
72320;SHT30;60269;52.502;16.732;2023-07-31T07:28:09;19.02;77.16
72320;SHT30;60269;52.502;16.732;2023-07-31T07:31:41;18.99;73.66
72320;SHT30;60269;52.502;16.732;2023-07-31T07:35:13;19.07;73.75
72320;SHT30;60269;52.502;16.732;2023-07-31T07:38:45;18.93;74.02
72320;SHT30;60269;52.502;16.732;2023-07-31T07:42:18;18.69;74.00
72320;SHT30;60269;52.502;16.732;2023-07-31T07:45:49;18.19;77.69
72320;SHT30;60269;52.502;16.732;2023-07-31T07:49:22;17.76;78.38
72320;SHT30;60269;52.502;16.732;2023-07-31T07:52:54;17.74;78.97
72320;SHT30;60269;52.502;16.732;2023-07-31T07:56:27;17.73;78.91
72320;SHT30;60269;52.502;16.732;2023-07-31T07:59:59;17.57;79.61
72320;SHT30;60269;52.502;16.732;2023-07-31T08:03:32;17.14;82.31
72320;SHT30;60269;52.502;16.732;2023-07-31T08:07:04;16.95;81.39
72320;SHT30;60269;52.502;16.732;2023-07-31T08:10:37;17.21;81.38
72320;SHT30;60269;52.502;16.732;2023-07-31T08:14:09;17.50;81.26
72320;SHT30;60269;52.502;16.732;2023-07-31T08:17:41;17.76;81.06
72320;SHT30;60269;52.502;16.732;2023-07-31T08:21:13;17.76;81.26
72320;SHT30;60269;52.502;16.732;2023-07-31T08:24:45;17.60;82.41
72320;SHT30;60269;52.502;16.732;2023-07-31T08:28:17;17.59;83.26
72320;SHT30;60269;52.502;16.732;2023-07-31T08:31:50;17.42;82.81
72320;SHT30;60269;52.502;16.732;2023-07-31T08:35:22;17.49;81.59
72320;SHT30;60269;52.502;16.732;2023-07-31T08:38:54;17.66;79.68
72320;SHT30;60269;52.502;16.732;2023-07-31T08:42:26;18.07;79.01
72320;SHT30;60269;52.502;16.732;2023-07-31T08:46:02;18.44;75.78
72320;SHT30;60269;52.502;16.732;2023-07-31T08:49:35;18.49;75.10
72320;SHT30;60269;52.502;16.732;2023-07-31T08:53:11;18.66;75.10
72320;SHT30;60269;52.502;16.732;2023-07-31T08:56:43;18.75;74.81
72320;SHT30;60269;52.502;16.732;2023-07-31T09:00:15;18.73;74.58
72320;SHT30;60269;52.502;16.732;2023-07-31T09:03:48;18.42;75.65
72320;SHT30;60269;52.502;16.732;2023-07-31T09:07:21;18.29;76.74
72320;SHT30;60269;52.502;16.732;2023-07-31T09:10:53;18.02;77.15
72320;SHT30;60269;52.502;16.732;2023-07-31T09:14:27;17.76;78.97
72320;SHT30;60269;52.502;16.732;2023-07-31T09:18:00;17.33;81.06
72320;SHT30;60269;52.502;16.732;2023-07-31T09:21:33;16.78;85.26
72320;SHT30;60269;52.502;16.732;2023-07-31T09:25:25;16.44;89.55
72320;SHT30;60269;52.502;16.732;2023-07-31T09:28:59;16.34;90.66
72320;SHT30;60269;52.502;16.732;2023-07-31T09:32:31;16.20;90.15
72320;SHT30;60269;52.502;16.732;2023-07-31T09:36:04;16.15;91.20
72320;SHT30;60269;52.502;16.732;2023-07-31T09:39:48;16.12;92.98
72320;SHT30;60269;52.502;16.732;2023-07-31T09:43:22;16.20;93.24
72320;SHT30;60269;52.502;16.732;2023-07-31T09:46:54;16.30;92.02
72320;SHT30;60269;52.502;16.732;2023-07-31T09:50:26;16.56;92.07
72320;SHT30;60269;52.502;16.732;2023-07-31T09:53:58;16.91;92.46
72320;SHT30;60269;52.502;16.732;2023-07-31T09:57:30;17.18;91.42
72320;SHT30;60269;52.502;16.732;2023-07-31T10:01:03;17.23;90.16
72320;SHT30;60269;52.502;16.732;2023-07-31T10:04:35;17.52;90.42
72320;SHT30;60269;52.502;16.732;2023-07-31T10:08:09;17.47;90.49
72320;SHT30;60269;52.502;16.732;2023-07-31T10:11:47;17.60;90.03
72320;SHT30;60269;52.502;16.732;2023-07-31T10:15:23;18.07;87.66
72320;SHT30;60269;52.502;16.732;2023-07-31T10:18:58;17.96;86.92
72320;SHT30;60269;52.502;16.732;2023-07-31T10:22:31;17.36;87.78
72320;SHT30;60269;52.502;16.732;2023-07-31T10:26:05;16.92;89.93
72320;SHT30;60269;52.502;16.732;2023-07-31T10:29:39;16.98;90.83
72320;SHT30;60269;52.502;16.732;2023-07-31T10:33:13;16.87;90.32
72320;SHT30;60269;52.502;16.732;2023-07-31T10:36:46;16.67;92.54
72320;SHT30;60269;52.502;16.732;2023-07-31T10:40:25;16.54;93.38
72320;SHT30;60269;52.502;16.732;2023-07-31T10:43:59;16.68;92.88
72320;SHT30;60269;52.502;16.732;2023-07-31T10:47:45;16.83;93.15
72320;SHT30;60269;52.502;16.732;2023-07-31T10:51:20;16.98;91.63
72320;SHT30;60269;52.502;16.732;2023-07-31T10:55:14;17.42;91.26
72320;SHT30;60269;52.502;16.732;2023-07-31T10:59:00;18.32;86.38
72320;SHT30;60269;52.502;16.732;2023-07-31T11:02:34;18.97;84.16
72320;SHT30;60269;52.502;16.732;2023-07-31T11:06:06;18.86;82.93
72320;SHT30;60269;52.502;16.732;2023-07-31T11:09:39;18.92;82.56
72320;SHT30;60269;52.502;16.732;2023-07-31T11:13:11;18.19;85.07
72320;SHT30;60269;52.502;16.732;2023-07-31T11:16:44;17.74;86.24
72320;SHT30;60269;52.502;16.732;2023-07-31T11:20:16;17.77;86.94
72320;SHT30;60269;52.502;16.732;2023-07-31T11:23:53;17.50;87.07
72320;SHT30;60269;52.502;16.732;2023-07-31T11:27:27;17.45;87.57
72320;SHT30;60269;52.502;16.732;2023-07-31T11:31:01;17.71;86.77
72320;SHT30;60269;52.502;16.732;2023-07-31T11:34:50;17.83;85.48
72320;SHT30;60269;52.502;16.732;2023-07-31T11:38:24;17.65;86.48
72320;SHT30;60269;52.502;16.732;2023-07-31T11:42:00;17.39;87.76
72320;SHT30;60269;52.502;16.732;2023-07-31T11:45:33;17.14;90.70
72320;SHT30;60269;52.502;16.732;2023-07-31T11:49:06;17.18;90.80
72320;SHT30;60269;52.502;16.732;2023-07-31T11:52:44;17.04;89.79
72320;SHT30;60269;52.502;16.732;2023-07-31T11:56:18;17.02;90.10
72320;SHT30;60269;52.502;16.732;2023-07-31T11:59:50;16.92;89.49
72320;SHT30;60269;52.502;16.732;2023-07-31T12:03:23;17.01;90.06
72320;SHT30;60269;52.502;16.732;2023-07-31T12:06:56;17.01;91.00
72320;SHT30;60269;52.502;16.732;2023-07-31T12:10:31;17.18;91.10
72320;SHT30;60269;52.502;16.732;2023-07-31T12:14:06;17.02;90.88
72320;SHT30;60269;52.502;16.732;2023-07-31T12:17:40;16.96;92.96
72320;SHT30;60269;52.502;16.732;2023-07-31T12:21:12;17.36;90.72
72320;SHT30;60269;52.502;16.732;2023-07-31T12:24:44;17.60;90.95
72320;SHT30;60269;52.502;16.732;2023-07-31T12:28:22;17.43;91.59
72320;SHT30;60269;52.502;16.732;2023-07-31T12:31:54;17.05;91.91
72320;SHT30;60269;52.502;16.732;2023-07-31T12:35:35;17.12;92.25
72320;SHT30;60269;52.502;16.732;2023-07-31T12:39:08;17.40;91.91
72320;SHT30;60269;52.502;16.732;2023-07-31T12:42:41;17.93;91.02
72320;SHT30;60269;52.502;16.732;2023-07-31T12:46:13;18.41;88.31
72320;SHT30;60269;52.502;16.732;2023-07-31T12:49:46;18.55;86.18
72320;SHT30;60269;52.502;16.732;2023-07-31T12:53:18;18.70;86.13
72320;SHT30;60269;52.502;16.732;2023-07-31T12:56:50;19.68;80.55
72320;SHT30;60269;52.502;16.732;2023-07-31T13:00:22;20.08;78.66
72320;SHT30;60269;52.502;16.732;2023-07-31T13:03:54;19.37;81.41
72320;SHT30;60269;52.502;16.732;2023-07-31T13:07:26;18.99;82.49
72320;SHT30;60269;52.502;16.732;2023-07-31T13:10:58;18.89;82.99
72320;SHT30;60269;52.502;16.732;2023-07-31T13:14:33;18.77;83.44
72320;SHT30;60269;52.502;16.732;2023-07-31T13:18:09;18.67;83.03
72320;SHT30;60269;52.502;16.732;2023-07-31T13:21:41;18.67;82.97
72320;SHT30;60269;52.502;16.732;2023-07-31T13:25:13;18.69;82.97
72320;SHT30;60269;52.502;16.732;2023-07-31T13:28:45;18.86;82.46
72320;SHT30;60269;52.502;16.732;2023-07-31T13:32:18;19.21;80.90
72320;SHT30;60269;52.502;16.732;2023-07-31T13:35:54;19.44;80.55
72320;SHT30;60269;52.502;16.732;2023-07-31T13:39:26;19.57;79.50
72320;SHT30;60269;52.502;16.732;2023-07-31T13:43:00;19.71;78.96
72320;SHT30;60269;52.502;16.732;2023-07-31T13:46:34;20.12;77.45
72320;SHT30;60269;52.502;16.732;2023-07-31T13:50:06;20.16;77.66
72320;SHT30;60269;52.502;16.732;2023-07-31T13:53:41;20.14;77.68
72320;SHT30;60269;52.502;16.732;2023-07-31T13:57:18;19.87;77.86
72320;SHT30;60269;52.502;16.732;2023-07-31T14:00:50;19.92;78.37
72320;SHT30;60269;52.502;16.732;2023-07-31T14:04:23;19.66;79.06
72320;SHT30;60269;52.502;16.732;2023-07-31T14:07:55;19.57;79.47
72320;SHT30;60269;52.502;16.732;2023-07-31T14:11:27;19.50;79.78
72320;SHT30;60269;52.502;16.732;2023-07-31T14:14:59;19.58;79.95
72320;SHT30;60269;52.502;16.732;2023-07-31T14:18:31;19.82;79.45
72320;SHT30;60269;52.502;16.732;2023-07-31T14:22:04;20.34;77.35
72320;SHT30;60269;52.502;16.732;2023-07-31T14:25:42;22.38;71.99
72320;SHT30;60269;52.502;16.732;2023-07-31T14:29:14;24.67;63.11
72320;SHT30;60269;52.502;16.732;2023-07-31T14:32:46;23.54;65.99
72320;SHT30;60269;52.502;16.732;2023-07-31T14:36:19;22.29;69.13
72320;SHT30;60269;52.502;16.732;2023-07-31T14:39:50;21.67;70.43
72320;SHT30;60269;52.502;16.732;2023-07-31T14:43:23;21.47;71.18
72320;SHT30;60269;52.502;16.732;2023-07-31T14:46:55;21.42;70.74
72320;SHT30;60269;52.502;16.732;2023-07-31T14:50:27;21.95;68.75
72320;SHT30;60269;52.502;16.732;2023-07-31T14:53:59;22.77;65.03
72320;SHT30;60269;52.502;16.732;2023-07-31T14:57:33;24.55;60.86
72320;SHT30;60269;52.502;16.732;2023-07-31T15:01:05;23.73;61.56
72320;SHT30;60269;52.502;16.732;2023-07-31T15:04:37;23.44;63.83
72320;SHT30;60269;52.502;16.732;2023-07-31T15:08:09;22.60;66.05
72320;SHT30;60269;52.502;16.732;2023-07-31T15:11:43;21.94;67.61
72320;SHT30;60269;52.502;16.732;2023-07-31T15:15:15;21.57;68.83
72320;SHT30;60269;52.502;16.732;2023-07-31T15:18:50;21.47;69.58
72320;SHT30;60269;52.502;16.732;2023-07-31T15:22:22;21.39;69.21
72320;SHT30;60269;52.502;16.732;2023-07-31T15:25:55;21.30;67.50
72320;SHT30;60269;52.502;16.732;2023-07-31T15:29:27;21.22;66.97
72320;SHT30;60269;52.502;16.732;2023-07-31T15:33:00;21.18;67.37
72320;SHT30;60269;52.502;16.732;2023-07-31T15:36:32;21.10;67.49
72320;SHT30;60269;52.502;16.732;2023-07-31T15:40:05;21.13;67.45
72320;SHT30;60269;52.502;16.732;2023-07-31T15:43:37;21.39;65.11
72320;SHT30;60269;52.502;16.732;2023-07-31T15:47:09;21.70;63.75
72320;SHT30;60269;52.502;16.732;2023-07-31T15:50:41;21.88;63.20
72320;SHT30;60269;52.502;16.732;2023-07-31T15:54:16;21.88;63.21
72320;SHT30;60269;52.502;16.732;2023-07-31T15:57:48;21.94;63.58
72320;SHT30;60269;52.502;16.732;2023-07-31T16:01:22;21.93;62.66
72320;SHT30;60269;52.502;16.732;2023-07-31T16:04:53;22.36;62.02
72320;SHT30;60269;52.502;16.732;2023-07-31T16:08:26;23.18;59.89
72320;SHT30;60269;52.502;16.732;2023-07-31T16:11:58;22.94;60.35
72320;SHT30;60269;52.502;16.732;2023-07-31T16:15:30;22.77;61.13
72320;SHT30;60269;52.502;16.732;2023-07-31T16:19:03;22.46;61.25
72320;SHT30;60269;52.502;16.732;2023-07-31T16:22:36;22.12;62.18
72320;SHT30;60269;52.502;16.732;2023-07-31T16:26:10;22.15;62.68
72320;SHT30;60269;52.502;16.732;2023-07-31T16:29:43;22.39;62.44
72320;SHT30;60269;52.502;16.732;2023-07-31T16:33:15;22.53;61.16
72320;SHT30;60269;52.502;16.732;2023-07-31T16:36:47;22.25;61.34
72320;SHT30;60269;52.502;16.732;2023-07-31T16:40:21;22.16;61.81
72320;SHT30;60269;52.502;16.732;2023-07-31T16:43:54;22.26;62.24
72320;SHT30;60269;52.502;16.732;2023-07-31T16:47:26;22.15;62.11
72320;SHT30;60269;52.502;16.732;2023-07-31T16:50:58;21.98;62.68
72320;SHT30;60269;52.502;16.732;2023-07-31T16:54:31;21.93;62.68
72320;SHT30;60269;52.502;16.732;2023-07-31T16:58:04;21.84;63.02
72320;SHT30;60269;52.502;16.732;2023-07-31T17:01:36;22.24;62.26
72320;SHT30;60269;52.502;16.732;2023-07-31T17:05:09;21.95;62.74
72320;SHT30;60269;52.502;16.732;2023-07-31T17:08:41;21.91;62.85
72320;SHT30;60269;52.502;16.732;2023-07-31T17:12:13;21.84;63.34
72320;SHT30;60269;52.502;16.732;2023-07-31T17:15:45;21.60;63.80
72320;SHT30;60269;52.502;16.732;2023-07-31T17:19:18;21.43;64.93
72320;SHT30;60269;52.502;16.732;2023-07-31T17:22:50;21.29;64.53
72320;SHT30;60269;52.502;16.732;2023-07-31T17:26:22;21.25;65.03
72320;SHT30;60269;52.502;16.732;2023-07-31T17:29:55;21.51;64.23
72320;SHT30;60269;52.502;16.732;2023-07-31T17:33:27;21.64;64.52
72320;SHT30;60269;52.502;16.732;2023-07-31T17:36:59;21.63;63.99
72320;SHT30;60269;52.502;16.732;2023-07-31T17:40:32;21.30;65.00
72320;SHT30;60269;52.502;16.732;2023-07-31T17:44:04;21.13;65.68
72320;SHT30;60269;52.502;16.732;2023-07-31T17:47:37;21.02;65.54
72320;SHT30;60269;52.502;16.732;2023-07-31T17:51:08;20.96;65.82
72320;SHT30;60269;52.502;16.732;2023-07-31T17:54:41;20.89;66.14
72320;SHT30;60269;52.502;16.732;2023-07-31T17:58:15;20.81;66.74
72320;SHT30;60269;52.502;16.732;2023-07-31T18:01:47;20.61;67.47
72320;SHT30;60269;52.502;16.732;2023-07-31T18:05:19;20.45;67.92
72320;SHT30;60269;52.502;16.732;2023-07-31T18:08:51;20.30;68.40
72320;SHT30;60269;52.502;16.732;2023-07-31T18:12:23;20.16;69.02
72320;SHT30;60269;52.502;16.732;2023-07-31T18:15:56;20.09;69.59
72320;SHT30;60269;52.502;16.732;2023-07-31T18:19:28;19.99;70.01
72320;SHT30;60269;52.502;16.732;2023-07-31T18:23:02;19.87;70.17
72320;SHT30;60269;52.502;16.732;2023-07-31T18:26:34;19.76;70.60
72320;SHT30;60269;52.502;16.732;2023-07-31T18:30:09;19.65;71.24
72320;SHT30;60269;52.502;16.732;2023-07-31T18:33:41;19.52;71.87
72320;SHT30;60269;52.502;16.732;2023-07-31T18:37:14;19.39;72.35
72320;SHT30;60269;52.502;16.732;2023-07-31T18:40:46;19.44;72.09
72320;SHT30;60269;52.502;16.732;2023-07-31T18:44:18;19.38;72.19
72320;SHT30;60269;52.502;16.732;2023-07-31T18:47:50;19.31;72.74
72320;SHT30;60269;52.502;16.732;2023-07-31T18:51:23;19.45;72.18
72320;SHT30;60269;52.502;16.732;2023-07-31T18:54:55;19.66;71.18
72320;SHT30;60269;52.502;16.732;2023-07-31T18:58:27;19.69;71.30
72320;SHT30;60269;52.502;16.732;2023-07-31T19:01:59;19.66;71.40
72320;SHT30;60269;52.502;16.732;2023-07-31T19:05:31;19.69;71.38
72320;SHT30;60269;52.502;16.732;2023-07-31T19:09:03;19.61;71.68
72320;SHT30;60269;52.502;16.732;2023-07-31T19:12:36;19.57;71.95
72320;SHT30;60269;52.502;16.732;2023-07-31T19:16:09;19.50;72.30
72320;SHT30;60269;52.502;16.732;2023-07-31T19:19:43;19.28;73.05
72320;SHT30;60269;52.502;16.732;2023-07-31T19:23:15;19.31;73.06
72320;SHT30;60269;52.502;16.732;2023-07-31T19:26:48;19.39;72.71
72320;SHT30;60269;52.502;16.732;2023-07-31T19:30:19;19.44;72.92
72320;SHT30;60269;52.502;16.732;2023-07-31T19:33:52;19.48;72.69
72320;SHT30;60269;52.502;16.732;2023-07-31T19:37:23;19.41;72.60
72320;SHT30;60269;52.502;16.732;2023-07-31T19:40:58;19.31;73.13
72320;SHT30;60269;52.502;16.732;2023-07-31T19:44:32;19.21;73.31
72320;SHT30;60269;52.502;16.732;2023-07-31T19:48:04;19.03;74.06
72320;SHT30;60269;52.502;16.732;2023-07-31T19:51:36;18.75;75.05
72320;SHT30;60269;52.502;16.732;2023-07-31T19:55:09;18.66;75.24
72320;SHT30;60269;52.502;16.732;2023-07-31T19:58:41;18.69;75.31
72320;SHT30;60269;52.502;16.732;2023-07-31T20:02:13;18.79;75.11
72320;SHT30;60269;52.502;16.732;2023-07-31T20:05:45;19.00;74.51
72320;SHT30;60269;52.502;16.732;2023-07-31T20:09:20;19.18;74.06
72320;SHT30;60269;52.502;16.732;2023-07-31T20:12:53;19.24;73.88
72320;SHT30;60269;52.502;16.732;2023-07-31T20:16:25;19.24;73.56
72320;SHT30;60269;52.502;16.732;2023-07-31T20:19:57;19.31;73.31
72320;SHT30;60269;52.502;16.732;2023-07-31T20:23:30;19.31;73.37
72320;SHT30;60269;52.502;16.732;2023-07-31T20:27:19;19.43;72.77
72320;SHT30;60269;52.502;16.732;2023-07-31T20:30:52;19.45;72.79
72320;SHT30;60269;52.502;16.732;2023-07-31T20:34:24;19.52;72.37
72320;SHT30;60269;52.502;16.732;2023-07-31T20:37:56;19.51;72.64
72320;SHT30;60269;52.502;16.732;2023-07-31T20:41:28;19.41;72.97
72320;SHT30;60269;52.502;16.732;2023-07-31T20:45:00;19.38;73.26
72320;SHT30;60269;52.502;16.732;2023-07-31T20:48:32;19.44;72.92
72320;SHT30;60269;52.502;16.732;2023-07-31T20:52:05;19.52;72.98
72320;SHT30;60269;52.502;16.732;2023-07-31T20:55:38;19.52;73.02
72320;SHT30;60269;52.502;16.732;2023-07-31T20:59:10;19.54;72.84
72320;SHT30;60269;52.502;16.732;2023-07-31T21:02:42;19.48;73.35
72320;SHT30;60269;52.502;16.732;2023-07-31T21:06:15;19.50;73.46
72320;SHT30;60269;52.502;16.732;2023-07-31T21:09:48;19.44;73.88
72320;SHT30;60269;52.502;16.732;2023-07-31T21:13:21;19.38;74.34
72320;SHT30;60269;52.502;16.732;2023-07-31T21:16:53;19.45;73.95
72320;SHT30;60269;52.502;16.732;2023-07-31T21:20:25;19.58;73.55
72320;SHT30;60269;52.502;16.732;2023-07-31T21:23:59;19.54;73.98
72320;SHT30;60269;52.502;16.732;2023-07-31T21:27:31;19.51;74.04
72320;SHT30;60269;52.502;16.732;2023-07-31T21:31:13;19.45;74.41
72320;SHT30;60269;52.502;16.732;2023-07-31T21:34:47;19.45;74.52
72320;SHT30;60269;52.502;16.732;2023-07-31T21:38:19;19.43;74.56
72320;SHT30;60269;52.502;16.732;2023-07-31T21:41:52;19.47;74.15
72320;SHT30;60269;52.502;16.732;2023-07-31T21:45:23;19.47;74.20
72320;SHT30;60269;52.502;16.732;2023-07-31T21:48:56;19.43;74.28
72320;SHT30;60269;52.502;16.732;2023-07-31T21:52:28;19.44;74.13
72320;SHT30;60269;52.502;16.732;2023-07-31T21:56:01;19.38;74.38
72320;SHT30;60269;52.502;16.732;2023-07-31T21:59:33;19.39;74.36
72320;SHT30;60269;52.502;16.732;2023-07-31T22:03:09;19.31;74.54
72320;SHT30;60269;52.502;16.732;2023-07-31T22:06:44;19.18;75.17
72320;SHT30;60269;52.502;16.732;2023-07-31T22:10:16;19.18;75.08